Time;durP1;ratioP1;P1;durP2;ratioP2;P2;SDS_P1;SDS_P2;PMS_P1;PMS_P2;Temp;Humidity;BMP_temperature;BMP_pressure;BME280_temperature;BME280_humidity;BME280_pressure;Samples;Min_cycle;Max_cycle;Signal;HPM_P1;HPM_P2
2022/02/11 00:01:35;;;;;;;;;;;;;;;;;;5122545;28;20415;-91
2022/02/11 00:04:11;;;;;;;;;;;;;;;;;;5122426;28;19979;-94
2022/02/11 00:06:51;;;;;;;;;;;;;;;;;;5122251;28;19934;-92
2022/02/11 00:09:17;;;;;;;;;;;;;;;;;;5121943;28;20386;-92
2022/02/11 00:11:43;;;;;;;;;;;;;;;;;;5122199;28;20502;-92
2022/02/11 00:14:10;;;;;;;;;;;;;;;;;;5122627;28;19924;-93
2022/02/11 00:16:36;;;;;;;;;;;;;;;;;;5122113;28;19924;-93
2022/02/11 00:19:02;;;;;;;;;;;;;;;;;;5121909;28;19928;-93
2022/02/11 00:21:29;;;;;;;;;;;;;;;;;;5121414;28;19988;-93
2022/02/11 00:23:55;;;;;;;;;;;;;;;;;;5121643;28;20014;-92
2022/02/11 00:26:27;;;;;;;;;;;;;;;;;;5121728;28;19931;-92
2022/02/11 00:34:34;;;;;;;;;;;;;;;;;;5104869;28;19938;-93
2022/02/11 00:37:08;;;;;;;;;;;;;;;;;;5101002;28;19991;-93
2022/02/11 00:40:04;;;;;;;;;;;;;;;;;;5100781;28;19950;-94
2022/02/11 00:45:42;;;;;;;;;;;;;;;;;;5057348;28;20025;-93
2022/02/11 01:04:31;;;;;;;;;;;;;;;;;;5121359;28;19934;-93
2022/02/11 01:06:58;;;;;;;;;;;;;;;;;;5121775;28;19927;-94
2022/02/11 01:09:24;;;;;;;;;;;;;;;;;;5122581;28;19950;-93
2022/02/11 01:11:52;;;;;;;;;;;;;;;;;;5122802;28;20345;-93
2022/02/11 01:14:20;;;;;;;;;;;;;;;;;;5122519;28;19942;-93
2022/02/11 01:16:47;;;;;;;;;;;;;;;;;;5121728;28;19928;-93
2022/02/11 01:19:21;;;;;;;;;;;;;;;;;;5121343;28;19949;-92
2022/02/11 01:21:56;;;;;;;;;;;;;;;;;;5121459;28;19997;-93
2022/02/11 01:24:42;;;;;;;;;;;;;;;;;;5121802;28;19928;-93
2022/02/11 01:27:22;;;;;;;;;;;;;;;;;;5121702;28;19934;-93
2022/02/11 01:30:24;;;;;;;;;;;;;;;;;;5103809;28;19927;-95
2022/02/11 01:35:46;;;;;;;;;;;;;;;;;;5118952;28;19978;-93
2022/02/11 01:38:23;;;;;;;;;;;;;;;;;;5122089;28;19939;-93
2022/02/11 01:44:05;;;;;;;;;;;;;;;;;;5121000;28;19978;-92
2022/02/11 01:52:11;;;;;;;;;;;;;;;;;;5125708;28;19934;-93
2022/02/11 01:54:50;;;;;;;;;;;;;;;;;;5126457;28;20393;-93
2022/02/11 01:57:34;;;;;;;;;;;;;;;;;;5125827;28;19928;-92
2022/02/11 02:00:29;;;;;;;;;;;;;;;;;;5125370;28;19950;-92
2022/02/11 02:03:42;;;;;;;;;;;;;;;;;;5124935;28;19928;-93
2022/02/11 02:12:02;;;;;;;;;;;;;;;;;;5089008;28;19934;-92
2022/02/11 02:14:59;;;;;;;;;;;;;;;;;;5123598;28;19924;-93
2022/02/11 02:23:05;;;;;;;;;;;;;;;;;;5077603;28;19946;-93
2022/02/11 02:25:37;;;;;;;;;;;;;;;;;;5122948;28;19928;-93
2022/02/11 02:28:42;;;;;;;;;;;;;;;;;;5114859;28;19939;-93
2022/02/11 02:34:10;;;;;;;;;;;;;;;;;;5087797;28;19935;-93
2022/02/11 02:37:07;;;;;;;;;;;;;;;;;;5123792;28;19924;-92
2022/02/11 02:56:34;;;;;;;;;;;;;;;;;;5119958;28;19923;-93
2022/02/11 02:59:01;;;;;;;;;;;;;;;;;;5123957;28;19957;-93
2022/02/11 03:01:41;;;;;;;;;;;;;;;;;;5123705;28;19927;-93
2022/02/11 03:51:13;;;;;;;;;;;;;;;;;;5122550;28;19940;-92
2022/02/11 04:56:47;;;;;;;;;;;;;;;;;;5024169;28;19952;-94
2022/02/11 05:01:57;;;;;;;;;;;;;;;;;;5078718;28;19926;-93
2022/02/11 05:04:23;;;;;;;;;;;;;;;;;;5122266;28;19928;-92
2022/02/11 05:06:50;;;;;;;;;;;;;;;;;;5121871;28;19946;-93
2022/02/11 05:09:16;;;;;;;;;;;;;;;;;;5121078;28;19924;-92
2022/02/11 05:11:43;;;;;;;;;;;;;;;;;;5120982;28;19932;-93
2022/02/11 05:14:09;;;;;;;;;;;;;;;;;;5120684;28;19931;-93
2022/02/11 05:16:35;;;;;;;;;;;;;;;;;;5121458;28;19946;-92
2022/02/11 05:19:01;;;;;;;;;;;;;;;;;;5121857;28;19928;-91
2022/02/11 05:21:28;;;;;;;;;;;;;;;;;;5124980;28;20382;-92
2022/02/11 05:23:54;;;;;;;;;;;;;;;;;;5125674;28;20714;-93
2022/02/11 05:26:20;;;;;;;;;;;;;;;;;;5125067;28;19928;-94
2022/02/11 05:28:46;;;;;;;;;;;;;;;;;;5124598;28;19928;-92
2022/02/11 05:31:13;;;;;;;;;;;;;;;;;;5124377;28;19997;-94
2022/02/11 05:33:39;;;;;;;;;;;;;;;;;;5125523;28;19923;-92
2022/02/11 05:36:05;;;;;;;;;;;;;;;;;;5125591;28;19931;-93
2022/02/11 05:38:32;;;;;;;;;;;;;;;;;;5125655;28;19927;-94
2022/02/11 05:40:58;;;;;;;;;;;;;;;;;;5125822;28;20630;-92
2022/02/11 05:43:24;;;;;;;;;;;;;;;;;;5125864;28;20451;-93
2022/02/11 05:45:50;;;;;;;;;;;;;;;;;;5126547;28;20336;-92
2022/02/11 05:48:17;;;;;;;;;;;;;;;;;;5125774;28;19976;-93
2022/02/11 05:50:43;;;;;;;;;;;;;;;;;;5126148;28;19932;-93
2022/02/11 05:53:10;;;;;;;;;;;;;;;;;;5125268;28;19932;-93
2022/02/11 05:55:37;;;;;;;;;;;;;;;;;;5122338;28;19985;-92
2022/02/11 05:58:03;;;;;;;;;;;;;;;;;;5124461;28;19984;-93
2022/02/11 06:00:29;;;;;;;;;;;;;;;;;;5124103;28;19923;-93
2022/02/11 06:02:55;;;;;;;;;;;;;;;;;;5125096;28;19989;-94
2022/02/11 06:05:22;;;;;;;;;;;;;;;;;;5125558;28;19928;-93
2022/02/11 06:07:48;;;;;;;;;;;;;;;;;;5124575;28;19969;-93
2022/02/11 06:10:14;;;;;;;;;;;;;;;;;;5123329;28;19980;-93
2022/02/11 06:12:40;;;;;;;;;;;;;;;;;;5116278;28;19981;-93
2022/02/11 06:15:07;;;;;;;;;;;;;;;;;;5124788;28;19927;-93
2022/02/11 06:17:33;;;;;;;;;;;;;;;;;;5124191;28;19949;-93
2022/02/11 06:20:00;;;;;;;;;;;;;;;;;;5124186;28;19924;-94
2022/02/11 06:22:27;;;;;;;;;;;;;;;;;;5116378;28;19949;-93
2022/02/11 06:24:53;;;;;;;;;;;;;;;;;;5122328;28;19924;-92
2022/02/11 06:27:19;;;;;;;;;;;;;;;;;;5123270;28;19924;-93
2022/02/11 06:29:45;;;;;;;;;;;;;;;;;;5123259;28;19928;-94
2022/02/11 06:32:12;;;;;;;;;;;;;;;;;;5122858;28;19928;-93
2022/02/11 06:34:38;;;;;;;;;;;;;;;;;;5124783;28;20379;-94
2022/02/11 06:37:04;;;;;;;;;;;;;;;;;;5124606;28;21574;-94
2022/02/11 06:39:30;;;;;;;;;;;;;;;;;;5123778;28;20580;-93
2022/02/11 06:41:56;;;;;;;;;;;;;;;;;;5123914;28;20000;-93
2022/02/11 06:44:23;;;;;;;;;;;;;;;;;;5123612;28;19992;-92
2022/02/11 06:46:49;;;;;;;;;;;;;;;;;;5123037;28;19924;-94
2022/02/11 06:49:15;;;;;;;;;;;;;;;;;;5123987;28;19932;-93
2022/02/11 06:51:41;;;;;;;;;;;;;;;;;;5124442;28;19928;-93
2022/02/11 06:54:08;;;;;;;;;;;;;;;;;;5123880;28;19936;-92
2022/02/11 06:56:34;;;;;;;;;;;;;;;;;;5124739;28;20005;-93
2022/02/11 06:59:00;;;;;;;;;;;;;;;;;;5124077;28;19988;-92
2022/02/11 07:01:26;;;;;;;;;;;;;;;;;;5124266;28;19924;-92
2022/02/11 07:03:53;;;;;;;;;;;;;;;;;;5124119;28;19932;-92
2022/02/11 07:06:19;;;;;;;;;;;;;;;;;;5123079;28;19928;-92
2022/02/11 07:08:45;;;;;;;;;;;;;;;;;;5123730;28;19953;-92
2022/02/11 07:11:11;;;;;;;;;;;;;;;;;;5123607;28;19950;-92
2022/02/11 07:13:38;;;;;;;;;;;;;;;;;;5124466;28;19946;-92
2022/02/11 07:16:04;;;;;;;;;;;;;;;;;;5124009;28;19924;-91
2022/02/11 07:18:30;;;;;;;;;;;;;;;;;;5113751;28;19945;-92
2022/02/11 07:20:56;;;;;;;;;;;;;;;;;;5121843;28;19945;-92
2022/02/11 07:23:23;;;;;;;;;;;;;;;;;;5121857;28;19923;-92
2022/02/11 07:25:49;;;;;;;;;;;;;;;;;;5121540;28;20333;-91
2022/02/11 07:28:16;;;;;;;;;;;;;;;;;;5122571;28;20331;-92
2022/02/11 07:30:42;;;;;;;;;;;;;;;;;;5122977;28;20007;-91
2022/02/11 07:33:09;;;;;;;;;;;;;;;;;;5121572;28;19977;-92
2022/02/11 07:35:35;;;;;;;;;;;;;;;;;;5119747;28;20334;-91
2022/02/11 07:38:02;;;;;;;;;;;;;;;;;;5121357;28;19976;-92
2022/02/11 07:40:28;;;;;;;;;;;;;;;;;;5121417;28;19927;-91
2022/02/11 07:42:54;;;;;;;;;;;;;;;;;;5121898;28;19932;-91
2022/02/11 07:45:22;;;;;;;;;;;;;;;;;;5123108;28;19924;-91
2022/02/11 07:47:48;;;;;;;;;;;;;;;;;;5121866;28;19927;-92
2022/02/11 07:50:14;;;;;;;;;;;;;;;;;;5120115;28;19946;-92
2022/02/11 07:52:41;;;;;;;;;;;;;;;;;;5120407;28;19923;-93
2022/02/11 07:55:07;;;;;;;;;;;;;;;;;;5120713;28;19924;-92
2022/02/11 07:57:33;;;;;;;;;;;;;;;;;;5121328;28;19934;-93
2022/02/11 08:00:04;;;;;;;;;;;;;;;;;;5122812;28;19927;-93
2022/02/11 08:02:30;;;;;;;;;;;;;;;;;;5121993;28;20023;-92
2022/02/11 08:04:56;;;;;;;;;;;;;;;;;;5121210;28;19932;-91
2022/02/11 08:07:23;;;;;;;;;;;;;;;;;;5121344;28;19969;-93
2022/02/11 08:09:49;;;;;;;;;;;;;;;;;;5120357;28;19924;-93
2022/02/11 08:12:17;;;;;;;;;;;;;;;;;;5120404;28;19949;-93
2022/02/11 08:14:43;;;;;;;;;;;;;;;;;;5123337;28;19928;-93
2022/02/11 08:17:09;;;;;;;;;;;;;;;;;;5118315;28;19953;-95
2022/02/11 08:19:35;;;;;;;;;;;;;;;;;;5109819;28;20376;-95
2022/02/11 08:22:02;;;;;;;;;;;;;;;;;;5115804;28;19993;-94
2022/02/11 08:24:28;;;;;;;;;;;;;;;;;;5113329;28;19928;-95
2022/02/11 08:26:54;;;;;;;;;;;;;;;;;;5102250;28;19967;-95
2022/02/11 08:29:25;;;;;;;;;;;;;;;;;;5114788;28;19923;-94
2022/02/11 08:31:51;;;;;;;;;;;;;;;;;;5120903;28;19981;-93
2022/02/11 08:34:17;;;;;;;;;;;;;;;;;;5121873;28;19931;-94
2022/02/11 08:36:44;;;;;;;;;;;;;;;;;;5122944;28;19931;-93
2022/02/11 08:39:10;;;;;;;;;;;;;;;;;;5122415;28;19928;-94
2022/02/11 08:41:37;;;;;;;;;;;;;;;;;;5122522;28;19931;-94
2022/02/11 08:44:03;;;;;;;;;;;;;;;;;;5122245;28;19985;-94
2022/02/11 08:46:30;;;;;;;;;;;;;;;;;;5122138;28;19928;-94
2022/02/11 08:48:56;;;;;;;;;;;;;;;;;;5122799;28;19984;-94
2022/02/11 08:51:22;;;;;;;;;;;;;;;;;;5122969;28;19928;-95
2022/02/11 08:53:51;;;;;;;;;;;;;;;;;;5122635;28;19931;-94
2022/02/11 08:56:17;;;;;;;;;;;;;;;;;;5122448;28;19928;-94
2022/02/11 08:58:43;;;;;;;;;;;;;;;;;;5122784;28;19927;-94
2022/02/11 09:01:09;;;;;;;;;;;;;;;;;;5123003;28;19947;-94
2022/02/11 09:03:36;;;;;;;;;;;;;;;;;;5122064;28;19969;-94
2022/02/11 09:06:04;;;;;;;;;;;;;;;;;;5121272;28;20304;-94
2022/02/11 09:08:33;;;;;;;;;;;;;;;;;;5112082;27;19924;-93
2022/02/11 09:10:59;;;;;;;;;;;;;;;;;;5122750;28;19924;-94
2022/02/11 09:13:27;;;;;;;;;;;;;;;;;;5122601;28;20448;-94
2022/02/11 09:15:53;;;;;;;;;;;;;;;;;;5122738;28;19977;-95
2022/02/11 09:18:19;;;;;;;;;;;;;;;;;;5122675;28;19976;-94
2022/02/11 09:20:46;;;;;;;;;;;;;;;;;;5122467;28;19934;-94
2022/02/11 09:23:12;;;;;;;;;;;;;;;;;;5121299;28;19924;-91
2022/02/11 09:25:38;;;;;;;;;;;;;;;;;;5119422;28;20376;-93
2022/02/11 09:28:05;;;;;;;;;;;;;;;;;;5121312;28;19928;-95
2022/02/11 09:30:34;;;;;;;;;;;;;;;;;;5101155;28;19924;-93
2022/02/11 09:33:00;;;;;;;;;;;;;;;;;;5100827;28;20454;-93
2022/02/11 09:35:28;;;;;;;;;;;;;;;;;;5114569;28;19934;-93
2022/02/11 09:37:54;;;;;;;;;;;;;;;;;;5121247;28;19928;-93
2022/02/11 09:40:20;;;;;;;;;;;;;;;;;;5122013;28;19972;-93
2022/02/11 09:42:46;;;;;;;;;;;;;;;;;;5122116;28;19928;-93
2022/02/11 09:45:14;;;;;;;;;;;;;;;;;;5121588;28;19928;-94
2022/02/11 09:47:40;;;;;;;;;;;;;;;;;;5120606;28;19968;-93
2022/02/11 09:50:06;;;;;;;;;;;;;;;;;;5120007;28;19923;-96
2022/02/11 09:52:33;;;;;;;;;;;;;;;;;;5121244;28;19927;-94
2022/02/11 09:57:39;;;;;;;;;;;;;;;;;;5121366;28;19927;-94
2022/02/11 10:00:05;;;;;;;;;;;;;;;;;;5122260;28;19985;-94
2022/02/11 10:02:31;;;;;;;;;;;;;;;;;;5122472;28;19980;-95
2022/02/11 10:05:05;;;;;;;;;;;;;;;;;;5122343;28;19953;-94
2022/02/11 10:07:31;;;;;;;;;;;;;;;;;;5124026;28;19928;-95
2022/02/11 10:09:57;;;;;;;;;;;;;;;;;;5125416;28;19932;-94
2022/02/11 10:12:24;;;;;;;;;;;;;;;;;;5126431;28;19988;-95
2022/02/11 10:14:50;;;;;;;;;;;;;;;;;;5125532;28;19928;-96
2022/02/11 10:17:17;;;;;;;;;;;;;;;;;;5126291;28;19953;-94
2022/02/11 10:19:43;;;;;;;;;;;;;;;;;;5125442;28;20018;-96
2022/02/11 10:22:09;;;;;;;;;;;;;;;;;;5125209;28;19957;-94
2022/02/11 10:24:35;;;;;;;;;;;;;;;;;;5125553;28;19946;-94
2022/02/11 10:27:02;;;;;;;;;;;;;;;;;;5124904;28;19924;-95
2022/02/11 10:29:28;;;;;;;;;;;;;;;;;;5128070;28;19977;-96
2022/02/11 10:31:54;;;;;;;;;;;;;;;;;;5126789;28;19934;-95
2022/02/11 10:34:20;;;;;;;;;;;;;;;;;;5124931;28;19950;-95
2022/02/11 10:36:48;;;;;;;;;;;;;;;;;;5124861;28;19927;-95
2022/02/11 10:39:14;;;;;;;;;;;;;;;;;;5124675;28;20026;-96
2022/02/11 10:41:40;;;;;;;;;;;;;;;;;;5125752;28;19934;-95
2022/02/11 10:44:07;;;;;;;;;;;;;;;;;;5125207;28;19927;-95
2022/02/11 10:46:33;;;;;;;;;;;;;;;;;;5125627;28;19924;-96
2022/02/11 10:49:00;;;;;;;;;;;;;;;;;;5125322;28;19928;-93
2022/02/11 10:51:26;;;;;;;;;;;;;;;;;;5125798;28;19932;-94
2022/02/11 10:53:52;;;;;;;;;;;;;;;;;;5126212;28;19928;-95
2022/02/11 10:56:19;;;;;;;;;;;;;;;;;;5121397;28;19950;-96
2022/02/11 10:58:47;;;;;;;;;;;;;;;;;;5110692;28;19928;-96
2022/02/11 11:01:13;;;;;;;;;;;;;;;;;;5130643;28;19935;-96
2022/02/11 11:03:40;;;;;;;;;;;;;;;;;;5127509;28;19927;-96
2022/02/11 11:06:08;;;;;;;;;;;;;;;;;;5124282;28;19924;-96
2022/02/11 11:08:34;;;;;;;;;;;;;;;;;;5129049;28;19924;-96
2022/02/11 11:11:02;;;;;;;;;;;;;;;;;;5127861;28;19977;-96
2022/02/11 11:13:29;;;;;;;;;;;;;;;;;;5125999;28;19949;-96
2022/02/11 11:15:55;;;;;;;;;;;;;;;;;;5125464;28;19946;-95
2022/02/11 11:18:21;;;;;;;;;;;;;;;;;;5124221;28;19943;-94
2022/02/11 11:20:48;;;;;;;;;;;;;;;;;;5124293;28;19988;-94
2022/02/11 11:23:14;;;;;;;;;;;;;;;;;;5124678;28;19931;-95
2022/02/11 11:25:40;;;;;;;;;;;;;;;;;;5124727;28;19928;-96
2022/02/11 11:28:07;;;;;;;;;;;;;;;;;;5125456;28;19930;-95
2022/02/11 11:30:34;;;;;;;;;;;;;;;;;;5125014;28;19924;-96
2022/02/11 11:33:00;;;;;;;;;;;;;;;;;;5125769;28;19927;-96
2022/02/11 11:35:27;;;;;;;;;;;;;;;;;;5108111;28;19949;-96
2022/02/11 11:37:53;;;;;;;;;;;;;;;;;;5124995;28;20325;-94
2022/02/11 11:40:19;;;;;;;;;;;;;;;;;;5124671;28;19981;-96
2022/02/11 11:42:45;;;;;;;;;;;;;;;;;;5105927;28;19928;-96
2022/02/11 11:45:12;;;;;;;;;;;;;;;;;;5115419;28;19923;-95
2022/02/11 11:47:41;;;;;;;;;;;;;;;;;;5126134;28;19931;-96
2022/02/11 11:50:09;;;;;;;;;;;;;;;;;;5121474;28;19931;-96
2022/02/11 11:52:35;;;;;;;;;;;;;;;;;;5123443;28;19928;-93
2022/02/11 11:55:02;;;;;;;;;;;;;;;;;;5126118;28;19924;-96
2022/02/11 11:57:28;;;;;;;;;;;;;;;;;;5126586;28;19930;-95
2022/02/11 11:59:54;;;;;;;;;;;;;;;;;;5125946;28;19918;-95
2022/02/11 12:02:20;;;;;;;;;;;;;;;;;;5124717;28;19931;-96
2022/02/11 12:04:48;;;;;;;;;;;;;;;;;;5126296;28;19924;-96
2022/02/11 12:07:15;;;;;;;;;;;;;;;;;;5126881;28;19977;-95
2022/02/11 12:09:44;;;;;;;;;;;;;;;;;;5127981;28;19971;-94
2022/02/11 12:12:10;;;;;;;;;;;;;;;;;;5124791;28;19924;-95
2022/02/11 12:14:36;;;;;;;;;;;;;;;;;;5127067;28;19941;-96
2022/02/11 12:17:03;;;;;;;;;;;;;;;;;;5128602;28;20075;-96
2022/02/11 12:19:29;;;;;;;;;;;;;;;;;;5127442;28;19962;-96
2022/02/11 12:21:55;;;;;;;;;;;;;;;;;;5125305;28;19930;-95
2022/02/11 12:27:21;;;;;;;;;;;;;;;;;;5124910;28;19943;-96
2022/02/11 12:29:47;;;;;;;;;;;;;;;;;;5127251;28;19924;-95
2022/02/11 12:32:15;;;;;;;;;;;;;;;;;;5130528;28;19923;-96
2022/02/11 12:34:41;;;;;;;;;;;;;;;;;;5126490;28;20018;-95
2022/02/11 12:37:07;;;;;;;;;;;;;;;;;;5124136;28;19932;-95
2022/02/11 12:39:34;;;;;;;;;;;;;;;;;;5124972;28;19927;-95
2022/02/11 12:42:00;;;;;;;;;;;;;;;;;;5122148;28;19924;-95
2022/02/11 12:44:26;;;;;;;;;;;;;;;;;;5123854;28;19928;-95
2022/02/11 12:46:53;;;;;;;;;;;;;;;;;;5123335;28;19953;-96
2022/02/11 12:49:19;;;;;;;;;;;;;;;;;;5122322;28;19928;-94
2022/02/11 12:51:46;;;;;;;;;;;;;;;;;;5119949;22;20332;-96
2022/02/11 12:54:13;;;;;;;;;;;;;;;;;;5094116;28;20006;-96
2022/02/11 12:56:39;;;;;;;;;;;;;;;;;;5090817;28;19924;-94
2022/02/11 12:59:05;;;;;;;;;;;;;;;;;;5083261;28;19925;-95
2022/02/11 13:01:32;;;;;;;;;;;;;;;;;;5064313;28;19924;-95
2022/02/11 13:03:59;;;;;;;;;;;;;;;;;;5079592;28;19928;-94
2022/02/11 13:06:25;;;;;;;;;;;;;;;;;;5068758;28;19986;-92
2022/02/11 13:08:51;;;;;;;;;;;;;;;;;;5072960;28;20475;-92
2022/02/11 13:11:18;;;;;;;;;;;;;;;;;;5049498;28;19935;-92
2022/02/11 13:13:45;;;;;;;;;;;;;;;;;;5063923;28;19965;-93
2022/02/11 13:16:11;;;;;;;;;;;;;;;;;;5062997;28;19946;-94
2022/02/11 13:18:40;;;;;;;;;;;;;;;;;;5080633;28;19925;-94
2022/02/11 13:21:07;;;;;;;;;;;;;;;;;;5058396;28;19983;-92
2022/02/11 13:23:34;;;;;;;;;;;;;;;;;;5080653;28;19925;-96
2022/02/11 13:26:00;;;;;;;;;;;;;;;;;;5075915;28;19929;-96
2022/02/11 13:28:27;;;;;;;;;;;;;;;;;;5072747;28;19950;-96
2022/02/11 13:30:54;;;;;;;;;;;;;;;;;;5071795;28;19929;-92
2022/02/11 13:33:20;;;;;;;;;;;;;;;;;;5060223;28;19928;-92
2022/02/11 13:35:46;;;;;;;;;;;;;;;;;;5066180;28;19929;-96
2022/02/11 13:38:13;;;;;;;;;;;;;;;;;;5075994;28;19924;-96
2022/02/11 13:40:39;;;;;;;;;;;;;;;;;;5093633;28;19939;-96
2022/02/11 13:43:05;;;;;;;;;;;;;;;;;;5086026;28;19924;-92
2022/02/11 13:45:31;;;;;;;;;;;;;;;;;;5083777;28;19928;-91
2022/02/11 13:47:58;;;;;;;;;;;;;;;;;;5083931;28;19950;-96
2022/02/11 13:50:24;;;;;;;;;;;;;;;;;;5070485;28;20720;-93
2022/02/11 13:53:06;;;;;;;;;;;;;;;;;;5064742;28;20732;-93
2022/02/11 13:55:33;;;;;;;;;;;;;;;;;;5083022;28;19932;-94
2022/02/11 13:57:59;;;;;;;;;;;;;;;;;;5084707;28;19940;-96
2022/02/11 14:00:26;;;;;;;;;;;;;;;;;;5082386;28;19929;-96
2022/02/11 14:02:52;;;;;;;;;;;;;;;;;;5071004;28;20388;-94
2022/02/11 14:05:18;;;;;;;;;;;;;;;;;;5064907;28;19936;-92
2022/02/11 14:07:45;;;;;;;;;;;;;;;;;;5083757;28;19932;-95
2022/02/11 14:10:11;;;;;;;;;;;;;;;;;;5077520;28;19974;-94
2022/02/11 14:12:39;;;;;;;;;;;;;;;;;;5077037;28;19996;-95
2022/02/11 14:15:06;;;;;;;;;;;;;;;;;;5077903;28;19925;-94
2022/02/11 14:17:34;;;;;;;;;;;;;;;;;;5082161;28;20019;-95
2022/02/11 14:20:00;;;;;;;;;;;;;;;;;;5083748;28;19929;-95
2022/02/11 14:22:27;;;;;;;;;;;;;;;;;;5081601;28;19928;-96
2022/02/11 14:24:53;;;;;;;;;;;;;;;;;;5069035;28;19954;-95
2022/02/11 14:27:19;;;;;;;;;;;;;;;;;;5082153;28;19929;-94
2022/02/11 14:29:46;;;;;;;;;;;;;;;;;;5082380;28;19928;-95
2022/02/11 14:32:12;;;;;;;;;;;;;;;;;;5083349;28;20487;-95
2022/02/11 14:34:41;;;;;;;;;;;;;;;;;;5077554;28;20486;-93
2022/02/11 14:37:07;;;;;;;;;;;;;;;;;;5065857;28;19932;-96
2022/02/11 14:39:33;;;;;;;;;;;;;;;;;;5083577;28;21057;-95
2022/02/11 14:42:02;;;;;;;;;;;;;;;;;;5083569;28;20339;-95
2022/02/11 14:44:28;;;;;;;;;;;;;;;;;;5083418;28;19971;-95
2022/02/11 14:46:55;;;;;;;;;;;;;;;;;;5082141;28;19981;-96
2022/02/11 14:49:21;;;;;;;;;;;;;;;;;;5076088;28;19932;-96
2022/02/11 14:51:49;;;;;;;;;;;;;;;;;;5060552;28;19959;-95
2022/02/11 14:54:15;;;;;;;;;;;;;;;;;;5062366;28;19928;-95
2022/02/11 14:56:42;;;;;;;;;;;;;;;;;;5062354;28;19963;-94
2022/02/11 14:59:08;;;;;;;;;;;;;;;;;;5064037;28;19932;-95
2022/02/11 15:01:35;;;;;;;;;;;;;;;;;;5069426;28;19924;-94
2022/02/11 15:04:01;;;;;;;;;;;;;;;;;;5087549;28;19950;-96
2022/02/11 15:06:29;;;;;;;;;;;;;;;;;;5080878;28;19925;-96
2022/02/11 15:08:55;;;;;;;;;;;;;;;;;;5082579;28;19924;-96
2022/02/11 15:11:21;;;;;;;;;;;;;;;;;;5087321;28;19924;-96
2022/02/11 15:13:48;;;;;;;;;;;;;;;;;;5076152;28;19929;-96
2022/02/11 15:18:59;;;;;;;;;;;;;;;;;;5090593;28;19924;-92
2022/02/11 15:21:25;;;;;;;;;;;;;;;;;;5071804;28;20330;-92
2022/02/11 15:23:51;;;;;;;;;;;;;;;;;;5081835;28;20012;-94
2022/02/11 15:26:18;;;;;;;;;;;;;;;;;;5080698;28;19932;-95
2022/02/11 15:28:44;;;;;;;;;;;;;;;;;;5079689;28;19964;-92
2022/02/11 15:31:11;;;;;;;;;;;;;;;;;;5080753;28;19928;-93
2022/02/11 15:33:38;;;;;;;;;;;;;;;;;;5082771;28;19936;-94
2022/02/11 15:36:04;;;;;;;;;;;;;;;;;;5082396;28;19959;-93
2022/02/11 15:38:30;;;;;;;;;;;;;;;;;;5082312;28;19928;-95
2022/02/11 15:40:57;;;;;;;;;;;;;;;;;;5083974;28;19928;-93
2022/02/11 15:43:23;;;;;;;;;;;;;;;;;;5081286;28;19928;-93
2022/02/11 15:45:49;;;;;;;;;;;;;;;;;;5078012;28;19925;-93
2022/02/11 15:48:16;;;;;;;;;;;;;;;;;;5077342;28;19932;-95
2022/02/11 15:50:42;;;;;;;;;;;;;;;;;;5062496;28;19929;-95
2022/02/11 15:53:08;;;;;;;;;;;;;;;;;;5074525;28;19982;-93
2022/02/11 15:55:34;;;;;;;;;;;;;;;;;;5080627;28;19929;-94
2022/02/11 15:58:01;;;;;;;;;;;;;;;;;;5080103;28;19932;-94
2022/02/11 16:00:27;;;;;;;;;;;;;;;;;;5077928;28;20011;-94
2022/02/11 16:02:53;;;;;;;;;;;;;;;;;;5062676;28;19925;-93
2022/02/11 16:05:20;;;;;;;;;;;;;;;;;;5062100;28;19955;-93
2022/02/11 16:07:46;;;;;;;;;;;;;;;;;;5079063;28;19955;-95
2022/02/11 16:10:12;;;;;;;;;;;;;;;;;;5080702;28;19928;-93
2022/02/11 16:12:38;;;;;;;;;;;;;;;;;;5081730;28;19950;-94
2022/02/11 16:15:05;;;;;;;;;;;;;;;;;;5076208;28;19951;-94
2022/02/11 16:17:32;;;;;;;;;;;;;;;;;;5062453;28;20483;-93
2022/02/11 16:19:59;;;;;;;;;;;;;;;;;;5062732;28;19932;-93
2022/02/11 16:22:26;;;;;;;;;;;;;;;;;;5075361;28;19929;-92
2022/02/11 16:24:52;;;;;;;;;;;;;;;;;;5081825;28;19924;-93
2022/02/11 16:27:19;;;;;;;;;;;;;;;;;;5081792;28;19924;-93
2022/02/11 16:29:45;;;;;;;;;;;;;;;;;;5082022;28;19928;-92
2022/02/11 16:32:11;;;;;;;;;;;;;;;;;;5071789;28;19956;-93
2022/02/11 16:34:37;;;;;;;;;;;;;;;;;;5066487;28;19956;-93
2022/02/11 16:37:04;;;;;;;;;;;;;;;;;;5069725;28;19924;-92
2022/02/11 16:39:30;;;;;;;;;;;;;;;;;;5081456;28;19946;-93
2022/02/11 16:41:56;;;;;;;;;;;;;;;;;;5081017;28;19947;-93
2022/02/11 16:44:22;;;;;;;;;;;;;;;;;;5082846;28;20366;-95
2022/02/11 16:46:49;;;;;;;;;;;;;;;;;;5082336;28;19928;-93
2022/02/11 16:49:18;;;;;;;;;;;;;;;;;;5076268;28;19959;-95
2022/02/11 16:51:44;;;;;;;;;;;;;;;;;;5065833;28;19988;-94
2022/02/11 16:54:10;;;;;;;;;;;;;;;;;;5080762;28;19925;-95
2022/02/11 16:56:36;;;;;;;;;;;;;;;;;;5080847;28;19958;-94
2022/02/11 16:59:03;;;;;;;;;;;;;;;;;;5081395;28;19950;-94
2022/02/11 17:01:29;;;;;;;;;;;;;;;;;;5081060;28;19955;-93
2022/02/11 17:03:55;;;;;;;;;;;;;;;;;;5077408;28;19925;-94
2022/02/11 17:06:21;;;;;;;;;;;;;;;;;;5079029;28;20300;-93
2022/02/11 17:08:48;;;;;;;;;;;;;;;;;;5060440;28;19931;-93
2022/02/11 17:11:14;;;;;;;;;;;;;;;;;;5059768;28;19986;-93
2022/02/11 17:13:40;;;;;;;;;;;;;;;;;;5060555;28;19934;-93
2022/02/11 17:16:06;;;;;;;;;;;;;;;;;;5073406;28;19929;-93
2022/02/11 17:18:33;;;;;;;;;;;;;;;;;;5079890;28;19950;-96
2022/02/11 17:21:01;;;;;;;;;;;;;;;;;;5060362;28;19929;-95
2022/02/11 17:23:27;;;;;;;;;;;;;;;;;;5059961;28;19928;-96
2022/02/11 17:25:54;;;;;;;;;;;;;;;;;;5060562;28;19996;-93
2022/02/11 17:28:22;;;;;;;;;;;;;;;;;;5060947;28;20023;-94
2022/02/11 17:30:48;;;;;;;;;;;;;;;;;;5061022;28;19935;-94
2022/02/11 17:33:14;;;;;;;;;;;;;;;;;;5061511;28;19951;-95
2022/02/11 17:35:40;;;;;;;;;;;;;;;;;;5060433;28;19947;-94
2022/02/11 17:38:07;;;;;;;;;;;;;;;;;;5074851;28;20761;-94
2022/02/11 17:40:33;;;;;;;;;;;;;;;;;;5071932;28;19928;-96
2022/02/11 17:42:59;;;;;;;;;;;;;;;;;;5062441;28;19929;-96
2022/02/11 17:45:26;;;;;;;;;;;;;;;;;;5062040;28;19929;-96
2022/02/11 17:47:52;;;;;;;;;;;;;;;;;;5073225;28;19928;-96
2022/02/11 17:50:18;;;;;;;;;;;;;;;;;;5081375;28;19947;-96
2022/02/11 17:52:45;;;;;;;;;;;;;;;;;;5081021;28;20269;-95
2022/02/11 17:55:12;;;;;;;;;;;;;;;;;;5081056;28;19950;-96
2022/02/11 17:57:38;;;;;;;;;;;;;;;;;;5081659;28;19992;-94
2022/02/11 18:00:04;;;;;;;;;;;;;;;;;;5062239;28;19925;-96
2022/02/11 18:02:33;;;;;;;;;;;;;;;;;;5080112;28;19970;-96
2022/02/11 18:05:00;;;;;;;;;;;;;;;;;;5070648;28;19929;-94
2022/02/11 18:07:26;;;;;;;;;;;;;;;;;;5059220;28;19947;-94
2022/02/11 18:09:52;;;;;;;;;;;;;;;;;;5059569;28;19933;-95
2022/02/11 18:12:20;;;;;;;;;;;;;;;;;;5060035;28;19924;-95
2022/02/11 18:14:47;;;;;;;;;;;;;;;;;;5063326;28;19936;-94
2022/02/11 18:17:13;;;;;;;;;;;;;;;;;;5074946;28;19929;-94
2022/02/11 18:19:39;;;;;;;;;;;;;;;;;;5059666;28;19952;-95
2022/02/11 18:22:05;;;;;;;;;;;;;;;;;;5063817;28;20437;-96
2022/02/11 18:24:32;;;;;;;;;;;;;;;;;;5081858;28;19928;-96
2022/02/11 18:26:58;;;;;;;;;;;;;;;;;;5079747;28;19985;-95
2022/02/11 18:29:24;;;;;;;;;;;;;;;;;;5064110;28;19925;-96
2022/02/11 18:31:51;;;;;;;;;;;;;;;;;;5063275;28;20463;-94
2022/02/11 18:34:17;;;;;;;;;;;;;;;;;;5063959;28;20426;-95
2022/02/11 18:36:43;;;;;;;;;;;;;;;;;;5063945;28;20289;-95
2022/02/11 18:39:11;;;;;;;;;;;;;;;;;;5062721;28;20351;-96
2022/02/11 18:41:37;;;;;;;;;;;;;;;;;;5061264;28;19935;-94
2022/02/11 18:44:04;;;;;;;;;;;;;;;;;;5083070;28;19924;-96
2022/02/11 18:46:30;;;;;;;;;;;;;;;;;;5091172;28;19975;-95
2022/02/11 18:48:57;;;;;;;;;;;;;;;;;;5078649;28;19951;-95
2022/02/11 18:51:23;;;;;;;;;;;;;;;;;;5061225;28;19949;-94
2022/02/11 18:53:50;;;;;;;;;;;;;;;;;;5062753;28;19925;-94
2022/02/11 18:56:16;;;;;;;;;;;;;;;;;;5062048;28;19925;-95
2022/02/11 18:58:42;;;;;;;;;;;;;;;;;;5064103;28;19925;-96
2022/02/11 19:01:10;;;;;;;;;;;;;;;;;;5044831;28;19928;-91
2022/02/11 19:03:36;;;;;;;;;;;;;;;;;;5063140;28;19955;-91
2022/02/11 19:06:02;;;;;;;;;;;;;;;;;;5047362;28;19929;-96
2022/02/11 19:08:29;;;;;;;;;;;;;;;;;;5092840;28;19924;-96
2022/02/11 19:10:55;;;;;;;;;;;;;;;;;;5084347;28;19924;-96
2022/02/11 19:13:21;;;;;;;;;;;;;;;;;;5074905;28;19930;-96
2022/02/11 19:15:48;;;;;;;;;;;;;;;;;;5076592;28;19928;-96
2022/02/11 19:18:14;;;;;;;;;;;;;;;;;;5082975;28;20376;-96
2022/02/11 19:20:40;;;;;;;;;;;;;;;;;;5065467;28;20014;-96
2022/02/11 19:23:08;;;;;;;;;;;;;;;;;;5061897;28;19928;-94
2022/02/11 19:25:36;;;;;;;;;;;;;;;;;;5060620;28;19929;-96
2022/02/11 19:28:02;;;;;;;;;;;;;;;;;;5061665;28;19979;-96
2022/02/11 19:30:29;;;;;;;;;;;;;;;;;;5073695;28;19928;-95
2022/02/11 19:32:55;;;;;;;;;;;;;;;;;;5086024;28;19929;-96
2022/02/11 19:35:21;;;;;;;;;;;;;;;;;;5081365;28;19928;-95
2022/02/11 19:37:50;;;;;;;;;;;;;;;;;;5079964;28;19928;-96
2022/02/11 19:40:16;;;;;;;;;;;;;;;;;;5078971;28;19931;-96
2022/02/11 19:42:43;;;;;;;;;;;;;;;;;;5080884;28;19947;-96
2022/02/11 19:45:09;;;;;;;;;;;;;;;;;;5082332;28;19924;-95
2022/02/11 19:47:35;;;;;;;;;;;;;;;;;;5082390;28;20396;-95
2022/02/11 19:50:02;;;;;;;;;;;;;;;;;;5068945;28;19929;-95
2022/02/11 19:52:30;;;;;;;;;;;;;;;;;;5065119;28;19976;-96
2022/02/11 19:54:56;;;;;;;;;;;;;;;;;;5069864;28;19925;-95
2022/02/11 19:57:23;;;;;;;;;;;;;;;;;;5061264;28;20428;-96